createdAt,value
2022-10-24T00:02:01.991Z,100546.69
2022-10-24T00:09:03.672Z,100556.81
2022-10-24T00:16:05.509Z,100558.25
2022-10-24T00:23:07.095Z,100569.59
2022-10-24T00:30:09.179Z,100572.31
2022-10-24T00:37:11.986Z,100566.13
2022-10-24T00:44:22.517Z,100561.84
2022-10-24T00:51:29.348Z,100564.47
2022-10-24T00:58:32.087Z,100577.91
2022-10-24T01:05:40.416Z,100602.44
2022-10-24T01:12:57.581Z,100604.41
2022-10-24T01:20:11.673Z,100600.09
2022-10-24T01:27:22.897Z,100595.25
2022-10-24T01:34:28.764Z,100569.50
2022-10-24T01:41:30.312Z,100551.09
2022-10-24T01:48:35.627Z,100549.50
2022-10-24T01:55:37.184Z,100541.22
2022-10-24T02:02:41.551Z,100518.44
2022-10-24T02:09:43.557Z,100507.69
2022-10-24T02:16:45.198Z,100509.06
2022-10-24T02:23:54.066Z,100508.28
2022-10-24T02:31:07.438Z,100508.56
2022-10-24T02:38:21.104Z,100509.25
2022-10-24T02:45:22.715Z,100495.03
2022-10-24T02:52:24.362Z,100491.56
2022-10-24T02:59:25.980Z,100485.03
2022-10-24T03:06:27.565Z,100495.09
2022-10-24T03:13:29.179Z,100484.25
2022-10-24T03:20:31.042Z,100483.13
2022-10-24T03:27:33.966Z,100494.72
2022-10-24T03:34:35.507Z,100497.28
2022-10-24T03:41:37.120Z,100494.72
2022-10-24T03:48:39.173Z,100485.09
2022-10-24T03:55:40.755Z,100480.16
2022-10-24T04:02:43.860Z,100487.38
2022-10-24T04:09:45.635Z,100501.91
2022-10-24T04:16:47.202Z,100490.97
2022-10-24T04:23:48.955Z,100483.19
2022-10-24T04:30:55.065Z,100486.13
2022-10-24T04:37:56.614Z,100495.84
2022-10-24T04:44:58.188Z,100502.72
2022-10-24T04:51:59.785Z,100490.22
2022-10-24T04:59:01.991Z,100498.03
2022-10-24T05:06:03.740Z,100514.28
2022-10-24T05:13:05.299Z,100529.91
2022-10-24T05:20:07.539Z,100525.38
2022-10-24T05:27:09.128Z,100524.38
2022-10-24T05:34:10.684Z,100533.69
2022-10-24T05:41:12.280Z,100517.44
2022-10-24T05:48:13.826Z,100510.66
2022-10-24T05:55:17.911Z,100494.19
2022-10-24T06:02:20.323Z,100511.41
2022-10-24T06:09:22.005Z,100513.38
2022-10-24T06:16:25.060Z,100495.38
2022-10-24T06:23:26.650Z,100479.56
2022-10-24T06:30:28.451Z,100494.59
2022-10-24T06:37:30.254Z,100494.59
2022-10-24T06:44:31.853Z,100503.47
2022-10-24T06:51:33.423Z,100499.34
2022-10-24T06:58:35.855Z,100513.31
2022-10-24T07:05:37.420Z,100521.09
2022-10-24T07:12:39.001Z,100550.09
2022-10-24T07:19:40.713Z,100548.63
2022-10-24T07:26:42.263Z,100542.13
2022-10-24T07:33:43.820Z,100537.00
2022-10-24T07:40:45.494Z,100533.66
2022-10-24T07:47:47.576Z,100535.91
2022-10-24T07:54:49.389Z,100541.75
2022-10-24T08:01:51.031Z,100548.28
2022-10-24T08:08:52.633Z,100536.28
2022-10-24T08:15:54.303Z,100531.00
2022-10-24T08:22:55.878Z,100527.19
2022-10-24T08:29:57.447Z,100538.16
2022-10-24T08:36:59.011Z,100523.94
2022-10-24T08:44:01.885Z,100528.63
2022-10-24T08:51:11.292Z,100531.84
2022-10-24T08:58:14.963Z,100523.31
2022-10-24T09:05:21.441Z,100507.13
2022-10-24T09:12:24.169Z,100501.19
2022-10-24T09:19:26.820Z,100505.59
2022-10-24T09:26:28.889Z,100513.13
2022-10-24T09:33:33.319Z,100515.03
2022-10-24T09:40:34.913Z,100501.28
2022-10-24T09:47:39.590Z,100508.63
2022-10-24T09:54:41.157Z,100508.84
2022-10-24T10:01:42.830Z,100512.50
2022-10-24T10:08:54.981Z,100509.50
2022-10-24T10:15:58.574Z,100498.06
2022-10-24T10:23:16.407Z,100496.34
2022-10-24T10:30:20.186Z,100496.34
2022-10-24T10:37:31.267Z,100503.53
2022-10-24T10:45:03.791Z,100499.66
2022-10-24T10:52:40.435Z,100498.66
2022-10-24T10:59:45.406Z,100493.78
2022-10-24T11:06:51.805Z,100488.91
2022-10-24T11:14:14.185Z,100486.00
2022-10-24T11:21:16.403Z,100487.31
2022-10-24T11:28:26.918Z,100495.78
2022-10-24T11:35:37.136Z,100497.25
2022-10-24T11:43:00.812Z,100490.78
2022-10-24T11:50:21.844Z,100487.06
2022-10-24T11:57:27.535Z,100472.13
2022-10-24T12:04:51.498Z,100477.41
2022-10-24T12:12:23.246Z,100465.03
2022-10-24T12:19:24.850Z,100464.88
2022-10-24T12:26:28.316Z,100456.91
2022-10-24T12:33:30.221Z,100445.72
2022-10-24T12:40:57.638Z,100430.78
2022-10-24T12:47:59.072Z,100426.25
2022-10-24T12:55:00.639Z,100421.88
2022-10-24T13:02:20.697Z,100422.19
2022-10-24T13:09:32.653Z,100428.06
2022-10-24T13:16:52.603Z,100421.13
2022-10-24T13:23:54.189Z,100425.91
2022-10-24T13:30:58.657Z,100431.00
2022-10-24T13:38:02.865Z,100428.34
2022-10-24T13:45:23.419Z,100430.28
2022-10-24T13:52:49.292Z,100437.88
2022-10-24T13:59:59.388Z,100449.81
2022-10-24T14:07:06.307Z,100451.88
2022-10-24T14:14:18.271Z,100436.66
2022-10-24T14:21:21.792Z,100432.88
2022-10-24T14:28:27.476Z,100436.44
2022-10-24T14:35:29.076Z,100444.63
2022-10-24T14:42:30.694Z,100454.94
2022-10-24T14:49:36.555Z,100470.66
2022-10-24T14:56:39.602Z,100467.78
2022-10-24T15:03:54.347Z,100464.38
2022-10-24T15:11:16.193Z,100455.22
2022-10-24T15:18:32.588Z,100455.81
2022-10-24T15:25:37.996Z,100471.78
2022-10-24T15:32:42.597Z,100465.34
2022-10-24T15:39:44.141Z,100465.50
2022-10-24T15:46:45.811Z,100465.09
2022-10-24T15:53:48.034Z,100471.25
2022-10-24T16:00:50.946Z,100484.03
2022-10-24T16:07:52.773Z,100483.44
2022-10-24T16:14:54.333Z,100487.19
2022-10-24T16:21:58.887Z,100492.63
2022-10-24T16:29:00.625Z,100508.09
2022-10-24T16:36:02.177Z,100496.50
2022-10-24T16:43:03.769Z,100511.84
2022-10-24T16:50:06.011Z,100511.78
2022-10-24T16:57:07.561Z,100521.28
2022-10-24T17:04:09.186Z,100523.44
2022-10-24T17:11:32.286Z,100523.56
2022-10-24T17:18:33.007Z,100518.94
2022-10-24T17:25:34.638Z,100528.34
2022-10-24T17:32:36.486Z,100522.59
2022-10-24T17:39:48.250Z,100525.03
2022-10-24T17:46:52.334Z,100526.28
2022-10-24T17:53:57.363Z,100543.22
2022-10-24T18:00:59.650Z,100546.50
2022-10-24T18:08:01.375Z,100545.44
2022-10-24T18:15:02.952Z,100557.63
2022-10-24T18:22:04.560Z,100557.75
2022-10-24T18:29:06.120Z,100558.88
2022-10-24T18:36:12.450Z,100559.94
2022-10-24T18:43:14.069Z,100557.31
2022-10-24T18:50:17.508Z,100564.94
2022-10-24T18:57:23.917Z,100544.25
2022-10-24T19:04:25.752Z,100554.38
2022-10-24T19:11:27.364Z,100565.09
2022-10-24T19:18:29.209Z,100565.22
2022-10-24T19:25:31.685Z,100568.81
2022-10-24T19:32:33.255Z,100564.16
2022-10-24T19:39:34.816Z,100571.53
2022-10-24T19:46:36.520Z,100576.13
2022-10-24T19:53:42.519Z,100575.53
2022-10-24T20:00:44.271Z,100573.66
2022-10-24T20:07:45.882Z,100576.50
2022-10-24T20:14:47.473Z,100570.47
2022-10-24T20:21:49.067Z,100572.00
2022-10-24T20:28:51.415Z,100581.00
2022-10-24T20:35:52.961Z,100585.00
2022-10-24T20:42:54.571Z,100590.44
2022-10-24T20:49:56.126Z,100593.66
2022-10-24T20:56:57.726Z,100611.25
2022-10-24T21:03:59.353Z,100612.09
2022-10-24T21:11:05.682Z,100625.09
2022-10-24T21:18:07.286Z,100630.81
2022-10-24T21:25:09.277Z,100627.84
2022-10-24T21:32:10.839Z,100628.84
2022-10-24T21:39:13.448Z,100630.72
2022-10-24T21:46:16.557Z,100637.78
2022-10-24T21:53:18.109Z,100640.63
2022-10-24T22:00:19.781Z,100652.34
2022-10-24T22:07:21.499Z,100645.31
2022-10-24T22:14:23.150Z,100653.47
2022-10-24T22:21:34.645Z,100656.47
2022-10-24T22:28:36.184Z,100660.13
2022-10-24T22:35:38.027Z,100665.72
2022-10-24T22:42:39.787Z,100673.88
2022-10-24T22:49:41.282Z,100687.31
2022-10-24T22:56:43.150Z,100694.59
2022-10-24T23:04:00.889Z,100698.06
2022-10-24T23:11:02.708Z,100691.88
2022-10-24T23:18:04.533Z,100695.31
2022-10-24T23:25:06.531Z,100702.59
2022-10-24T23:32:16.205Z,100703.19
2022-10-24T23:39:18.090Z,100709.84
2022-10-24T23:46:24.200Z,100708.50
2022-10-24T23:53:50.194Z,100714.03
